CYPR/YPR METAR and TAF weather

Enter ICAO airport designator
Station Type Date Time Source
CYPR METAR 2019/12/07 10:00 UTC NOAA

CYPR 071000Z AUTO 06005KT 9SM CLR M02/M03 A2976 RMK SLP079


Station Type Date Time Source
CYPR Decoded METAR 2019/12/07 10:00 UTC NOAA

Prince Rupert, B. C., Canada (CYPR) 54-18N 130-26W 34M
Dec 07, 2019 - 05:00 AM EST / 2019.12.07 1000 UTC
Wind: from the ENE (060 degrees) at 6 MPH (5 KT):0
Visibility: 9 mile(s):0
Sky conditions: clear
Temperature: 28 F (-2 C)
Windchill: 21 F (-6 C):1
Dew Point: 26 F (-3 C)
Relative Humidity: 92%
Pressure (altimeter): 29.76 in. Hg (1007 hPa)
ob: CYPR 071000Z AUTO 06005KT 9SM CLR M02/M03 A2976 RMK SLP079
cycle: 10

Station Type Date Time Source
CYPR TAF 2019/12/07 07:39 UTC NOAA

TAF TAF CYPR 070638Z 0707/0719 06005KT P6SM SKC
RMK FCST BASED ON AUTO OBS. NXT FCST BY 071300Z

Example: see airport list